Time;durP1;ratioP1;P1;durP2;ratioP2;P2;SDS_P1;SDS_P2;PMS_P1;PMS_P2;Temp;Humidity;BMP_temperature;BMP_pressure;BME280_temperature;BME280_humidity;BME280_pressure;Samples;Min_cycle;Max_cycle;Signal;HPM_P1;HPM_P2
2022/02/06 00:01:34;;;;;;;781.80;378.55;;;;;;;;;;4967183;28;20025;-77
2022/02/06 00:04:00;;;;;;;787.10;393.73;;;;;;;;;;4942961;28;20022;-77
2022/02/06 00:06:26;;;;;;;783.22;384.45;;;;;;;;;;4962046;28;20522;-75
2022/02/06 00:08:52;;;;;;;786.00;392.20;;;;;;;;;;4945299;28;20115;-78
2022/02/06 00:11:18;;;;;;;783.38;384.40;;;;;;;;;;4960651;28;20033;-77
2022/02/06 00:13:44;;;;;;;786.45;391.40;;;;;;;;;;4976947;28;20029;-76
2022/02/06 00:16:10;;;;;;;786.33;389.65;;;;;;;;;;4958050;28;20464;-77
2022/02/06 00:18:36;;;;;;;784.83;393.67;;;;;;;;;;4971918;28;20114;-76
2022/02/06 00:21:07;;;;;;;790.55;398.17;;;;;;;;;;4960814;28;20480;-76
2022/02/06 00:23:34;;;;;;;804.03;397.23;;;;;;;;;;4970016;28;20037;-76
2022/02/06 00:29:14;;;;;;;787.92;394.02;;;;;;;;;;4949640;28;20413;-77
2022/02/06 00:31:55;;;;;;;787.42;390.65;;;;;;;;;;4978621;28;20033;-75
2022/02/06 00:40:14;;;;;;;787.03;386.45;;;;;;;;;;4966900;28;20026;-77
2022/02/06 00:42:40;;;;;;;785.58;391.35;;;;;;;;;;4952002;28;20077;-76
2022/02/06 00:45:06;;;;;;;784.67;385.65;;;;;;;;;;4995437;28;20451;-76
2022/02/06 00:47:32;;;;;;;785.85;391.17;;;;;;;;;;4972050;28;20045;-77
2022/02/06 00:49:59;;;;;;;790.25;401.33;;;;;;;;;;4960917;28;20027;-76
2022/02/06 00:52:38;;;;;;;789.33;399.25;;;;;;;;;;4981146;28;20027;-77
2022/02/06 00:55:04;;;;;;;791.70;399.00;;;;;;;;;;4953255;28;20032;-76
2022/02/06 00:57:30;;;;;;;787.10;392.50;;;;;;;;;;4975968;28;20027;-77
2022/02/06 00:59:56;;;;;;;788.10;396.42;;;;;;;;;;4957969;28;20043;-75
2022/02/06 01:02:22;;;;;;;788.38;397.70;;;;;;;;;;4955828;28;20121;-77
2022/02/06 01:04:48;;;;;;;789.53;402.63;;;;;;;;;;4937230;28;20147;-76
2022/02/06 01:07:14;;;;;;;791.05;399.05;;;;;;;;;;4980076;28;20111;-75
2022/02/06 01:09:40;;;;;;;791.00;402.20;;;;;;;;;;4969469;28;20023;-77
2022/02/06 01:12:07;;;;;;;790.08;401.27;;;;;;;;;;4971737;28;20033;-76
2022/02/06 01:14:53;;;;;;;791.60;405.35;;;;;;;;;;4972094;28;20039;-76
2022/02/06 01:20:26;;;;;;;789.78;396.30;;;;;;;;;;4947325;28;20044;-76
2022/02/06 01:22:57;;;;;;;790.20;393.35;;;;;;;;;;4961873;28;20452;-77
2022/02/06 01:25:31;;;;;;;793.67;401.92;;;;;;;;;;4965150;28;20110;-76
2022/02/06 01:28:10;;;;;;;794.30;404.77;;;;;;;;;;4964954;28;20534;-75
2022/02/06 01:30:52;;;;;;;790.58;401.42;;;;;;;;;;4958753;28;20054;-77
2022/02/06 01:33:26;;;;;;;793.60;405.45;;;;;;;;;;4962105;28;20589;-77
2022/02/06 01:36:23;;;;;;;793.28;411.15;;;;;;;;;;4972973;28;20039;-78
2022/02/06 01:41:26;;;;;;;791.35;395.58;;;;;;;;;;4942238;28;20042;-76
2022/02/06 01:44:07;;;;;;;793.90;408.67;;;;;;;;;;4964101;28;20035;-77
2022/02/06 02:17:06;;;;;;;792.22;406.27;;;;;;;;;;4964441;28;20035;-76
2022/02/06 02:30:53;;;;;;;793.20;412.90;;;;;;;;;;4971498;28;20390;-76
2022/02/06 02:42:52;;;;;;;794.25;414.92;;;;;;;;;;4965332;28;20718;-76
2022/02/06 02:47:20;;;;;;;796.60;417.75;;;;;;;;;;4953563;28;20550;-77
2022/02/06 02:52:38;;;;;;;798.38;424.13;;;;;;;;;;4966477;28;20033;-77
2022/02/06 02:57:47;;;;;;;799.20;429.52;;;;;;;;;;4953948;28;20423;-77
2022/02/06 03:00:35;;;;;;;798.33;424.02;;;;;;;;;;4951442;28;20039;-77
2022/02/06 03:03:13;;;;;;;796.55;422.52;;;;;;;;;;4940328;28;20092;-76
2022/02/06 03:05:40;;;;;;;796.20;417.10;;;;;;;;;;4944528;28;20047;-78
2022/02/06 03:08:08;;;;;;;795.08;417.65;;;;;;;;;;4966763;28;20023;-76
2022/02/06 03:10:34;;;;;;;796.90;425.27;;;;;;;;;;4972376;28;20039;-77
2022/02/06 03:13:04;;;;;;;799.10;427.65;;;;;;;;;;4976003;28;20034;-76
2022/02/06 03:18:35;;;;;;;796.13;420.02;;;;;;;;;;4900798;29;20036;-77
2022/02/06 03:21:02;;;;;;;793.85;410.88;;;;;;;;;;4947960;28;20046;-76
2022/02/06 03:23:28;;;;;;;798.08;428.05;;;;;;;;;;4951822;28;20026;-77
2022/02/06 03:25:55;;;;;;;821.88;420.20;;;;;;;;;;4952494;28;20035;-76
2022/02/06 03:28:22;;;;;;;799.95;430.23;;;;;;;;;;4963376;28;20378;-78
2022/02/06 03:30:48;;;;;;;802.00;440.20;;;;;;;;;;4965318;28;20040;-77
2022/02/06 03:33:15;;;;;;;799.83;424.55;;;;;;;;;;4959657;28;20038;-77
2022/02/06 03:35:41;;;;;;;801.28;434.83;;;;;;;;;;4970692;28;20039;-76
2022/02/06 03:38:08;;;;;;;801.05;430.80;;;;;;;;;;4962116;28;20050;-78
2022/02/06 03:40:44;;;;;;;801.72;436.08;;;;;;;;;;4979297;28;20027;-77
2022/02/06 03:43:21;;;;;;;801.40;431.90;;;;;;;;;;4983516;28;20023;-77
2022/02/06 03:45:55;;;;;;;799.53;429.17;;;;;;;;;;4948826;28;20028;-77
2022/02/06 03:48:33;;;;;;;801.13;430.55;;;;;;;;;;4955669;28;20033;-76
2022/02/06 03:51:05;;;;;;;799.58;427.67;;;;;;;;;;4963813;28;20054;-78
2022/02/06 03:53:32;;;;;;;798.72;423.30;;;;;;;;;;4953467;28;20054;-78
2022/02/06 03:56:00;;;;;;;800.90;433.35;;;;;;;;;;4983819;28;20047;-76
2022/02/06 03:58:26;;;;;;;800.53;428.08;;;;;;;;;;4978696;28;20387;-78
2022/02/06 04:00:52;;;;;;;802.70;440.10;;;;;;;;;;4971094;28;20051;-76
2022/02/06 04:03:18;;;;;;;798.88;428.17;;;;;;;;;;4970658;28;20449;-77
2022/02/06 04:05:46;;;;;;;796.75;429.67;;;;;;;;;;4979107;28;20522;-76
2022/02/06 04:08:16;;;;;;;801.38;432.20;;;;;;;;;;4963482;28;20050;-77
2022/02/06 04:10:47;;;;;;;798.33;424.58;;;;;;;;;;4978843;28;20063;-78
2022/02/06 04:13:19;;;;;;;798.08;427.08;;;;;;;;;;4987474;28;20039;-76
2022/02/06 04:15:48;;;;;;;798.58;424.65;;;;;;;;;;4981995;28;20061;-78
2022/02/06 04:18:18;;;;;;;802.80;436.70;;;;;;;;;;4948217;28;20106;-77
2022/02/06 04:20:44;;;;;;;801.88;434.77;;;;;;;;;;4955165;28;20032;-75
2022/02/06 04:23:10;;;;;;;803.63;443.50;;;;;;;;;;4959448;28;20360;-76
2022/02/06 04:25:36;;;;;;;803.22;440.38;;;;;;;;;;4958049;28;20034;-75
2022/02/06 04:28:03;;;;;;;804.45;446.55;;;;;;;;;;4964307;28;20562;-77
2022/02/06 04:30:29;;;;;;;801.15;431.85;;;;;;;;;;4962148;28;20467;-76
2022/02/06 04:32:55;;;;;;;804.88;439.67;;;;;;;;;;4961174;28;20062;-77
2022/02/06 04:35:22;;;;;;;800.08;431.98;;;;;;;;;;4956668;28;20033;-76
2022/02/06 04:38:07;;;;;;;807.70;447.67;;;;;;;;;;4965242;28;20107;-77
2022/02/06 04:43:31;;;;;;;800.63;434.92;;;;;;;;;;4978446;28;20959;-76
2022/02/06 04:49:07;;;;;;;813.78;428.67;;;;;;;;;;4970714;28;20497;-76
2022/02/06 05:16:42;;;;;;;801.78;437.75;;;;;;;;;;4968255;28;20035;-76
2022/02/06 05:29:47;;;;;;;804.47;443.70;;;;;;;;;;4965262;28;20039;-77
2022/02/06 05:32:36;;;;;;;804.65;439.73;;;;;;;;;;4959771;28;20391;-77
2022/02/06 05:35:03;;;;;;;803.17;431.88;;;;;;;;;;4985187;28;20538;-78
2022/02/06 05:37:29;;;;;;;807.00;451.33;;;;;;;;;;4960477;28;20107;-78
2022/02/06 05:39:55;;;;;;;803.50;437.80;;;;;;;;;;4973279;28;20119;-78
2022/02/06 05:42:21;;;;;;;809.83;455.00;;;;;;;;;;4987171;28;20036;-76
2022/02/06 05:44:57;;;;;;;803.95;446.45;;;;;;;;;;4958596;28;20062;-78
2022/02/06 05:47:23;;;;;;;804.28;448.85;;;;;;;;;;4967023;28;20066;-78
2022/02/06 05:49:50;;;;;;;807.90;449.52;;;;;;;;;;4973340;28;20122;-77
2022/02/06 05:52:16;;;;;;;803.45;436.17;;;;;;;;;;4953410;28;20041;-78
2022/02/06 05:54:42;;;;;;;807.20;453.70;;;;;;;;;;4969579;28;20039;-78
2022/02/06 05:57:08;;;;;;;807.88;453.33;;;;;;;;;;4963066;28;20098;-78
2022/02/06 05:59:34;;;;;;;809.78;460.73;;;;;;;;;;4959810;28;20033;-77
2022/02/06 06:02:00;;;;;;;805.70;446.33;;;;;;;;;;4964549;28;20025;-77
2022/02/06 06:04:26;;;;;;;808.97;454.60;;;;;;;;;;4970667;28;20030;-78
2022/02/06 06:06:52;;;;;;;803.78;444.92;;;;;;;;;;4975020;28;20537;-76
2022/02/06 06:09:18;;;;;;;805.83;451.75;;;;;;;;;;4982666;28;20338;-77
2022/02/06 06:11:44;;;;;;;809.55;457.98;;;;;;;;;;4962621;28;20029;-77
2022/02/06 06:14:10;;;;;;;809.03;459.08;;;;;;;;;;4951946;28;20541;-78
2022/02/06 06:16:36;;;;;;;809.33;458.70;;;;;;;;;;4964606;28;20031;-79
2022/02/06 06:19:04;;;;;;;808.85;457.42;;;;;;;;;;4994898;28;20387;-78
2022/02/06 06:21:36;;;;;;;806.53;455.13;;;;;;;;;;4966890;28;20026;-78
2022/02/06 06:24:02;;;;;;;804.28;448.15;;;;;;;;;;4983104;28;20015;-78
2022/02/06 06:26:33;;;;;;;806.20;453.33;;;;;;;;;;4966104;28;20388;-78
2022/02/06 06:28:59;;;;;;;804.30;452.55;;;;;;;;;;4947300;28;20475;-77
2022/02/06 06:31:28;;;;;;;804.17;446.17;;;;;;;;;;4974326;28;20043;-78
2022/02/06 06:33:54;;;;;;;805.75;448.38;;;;;;;;;;4987989;28;20077;-77
2022/02/06 06:36:21;;;;;;;803.08;442.35;;;;;;;;;;4963181;28;20410;-77
2022/02/06 06:38:49;;;;;;;807.78;450.45;;;;;;;;;;4969966;28;20122;-78
2022/02/06 06:41:15;;;;;;;803.20;443.73;;;;;;;;;;4945211;28;20044;-77
2022/02/06 06:43:41;;;;;;;803.95;444.08;;;;;;;;;;4961732;28;20031;-77
2022/02/06 06:46:07;;;;;;;800.95;438.45;;;;;;;;;;4981529;28;20393;-77
2022/02/06 06:48:33;;;;;;;803.97;444.05;;;;;;;;;;4979652;28;20027;-78
2022/02/06 06:50:59;;;;;;;803.13;441.42;;;;;;;;;;4958905;28;20038;-76
2022/02/06 06:53:25;;;;;;;798.67;433.35;;;;;;;;;;4964114;28;20035;-78
2022/02/06 06:55:55;;;;;;;803.58;440.20;;;;;;;;;;4957988;28;20160;-76
2022/02/06 06:58:34;;;;;;;801.88;437.48;;;;;;;;;;4951621;28;20562;-78
2022/02/06 07:03:31;;;;;;;802.92;437.27;;;;;;;;;;4964004;28;20038;-75
2022/02/06 07:05:58;;;;;;;799.90;435.95;;;;;;;;;;4976645;28;20396;-76
2022/02/06 07:08:24;;;;;;;806.65;447.38;;;;;;;;;;4949395;28;20021;-77
2022/02/06 07:10:51;;;;;;;805.35;444.42;;;;;;;;;;4964137;28;20411;-77
2022/02/06 07:13:23;;;;;;;803.03;438.50;;;;;;;;;;4958514;28;20033;-75
2022/02/06 07:15:49;;;;;;;803.15;437.27;;;;;;;;;;4962490;28;20031;-76
2022/02/06 07:18:15;;;;;;;800.92;427.15;;;;;;;;;;4975331;28;20114;-78
2022/02/06 07:20:41;;;;;;;807.45;448.08;;;;;;;;;;4954787;28;20126;-75
2022/02/06 07:23:09;;;;;;;800.75;428.73;;;;;;;;;;4971752;28;20672;-76
2022/02/06 07:25:38;;;;;;;800.88;434.55;;;;;;;;;;4965219;28;20035;-76
2022/02/06 07:28:06;;;;;;;804.67;444.67;;;;;;;;;;4962081;28;20522;-77
2022/02/06 07:30:32;;;;;;;801.53;439.90;;;;;;;;;;4987534;28;20089;-77
2022/02/06 07:32:58;;;;;;;802.75;439.65;;;;;;;;;;4963128;28;20050;-76
2022/02/06 07:35:24;;;;;;;799.78;435.95;;;;;;;;;;4972017;28;20018;-77
2022/02/06 07:37:55;;;;;;;801.70;435.90;;;;;;;;;;4974082;28;20033;-76
2022/02/06 07:40:21;;;;;;;800.00;432.70;;;;;;;;;;4962057;28;20496;-77
2022/02/06 07:42:47;;;;;;;795.05;426.02;;;;;;;;;;4957402;28;20059;-77
2022/02/06 07:45:14;;;;;;;799.78;433.85;;;;;;;;;;4961173;28;20039;-78
2022/02/06 07:47:43;;;;;;;800.38;437.27;;;;;;;;;;4971094;28;20487;-77
2022/02/06 07:50:09;;;;;;;798.92;432.35;;;;;;;;;;4981657;28;20079;-77
2022/02/06 07:52:38;;;;;;;802.85;443.20;;;;;;;;;;4959949;28;20431;-76
2022/02/06 07:55:06;;;;;;;800.28;434.42;;;;;;;;;;4963753;28;20031;-78
2022/02/06 07:57:32;;;;;;;802.10;438.08;;;;;;;;;;4960097;28;20034;-77
2022/02/06 07:59:58;;;;;;;798.03;428.88;;;;;;;;;;4979030;28;20479;-76
2022/02/06 08:02:24;;;;;;;822.08;440.52;;;;;;;;;;4955969;28;20040;-76
2022/02/06 08:04:51;;;;;;;802.55;436.35;;;;;;;;;;4963200;28;20095;-76
2022/02/06 08:07:17;;;;;;;808.03;440.98;;;;;;;;;;4946866;28;20031;-76
2022/02/06 08:09:57;;;;;;;801.08;435.55;;;;;;;;;;4986069;28;20123;-77
2022/02/06 08:12:40;;;;;;;801.38;434.75;;;;;;;;;;4952704;28;20055;-77
2022/02/06 08:15:06;;;;;;;802.45;435.65;;;;;;;;;;4955712;28;20510;-77
2022/02/06 08:17:35;;;;;;;803.03;437.50;;;;;;;;;;4960696;28;20038;-77
2022/02/06 08:20:03;;;;;;;800.83;440.10;;;;;;;;;;4974169;28;20380;-78
2022/02/06 08:22:29;;;;;;;802.33;435.98;;;;;;;;;;4954658;28;20031;-78
2022/02/06 08:24:56;;;;;;;799.28;431.23;;;;;;;;;;4958580;28;20486;-76
2022/02/06 08:27:23;;;;;;;802.35;439.42;;;;;;;;;;4979718;28;20107;-77
2022/02/06 08:29:49;;;;;;;799.25;434.85;;;;;;;;;;4964463;28;20094;-76
2022/02/06 08:32:16;;;;;;;802.45;444.17;;;;;;;;;;4960508;28;20035;-77
2022/02/06 08:34:42;;;;;;;799.55;437.23;;;;;;;;;;4962090;28;20035;-77
2022/02/06 08:37:08;;;;;;;799.65;436.77;;;;;;;;;;4968980;28;20039;-76
2022/02/06 08:39:36;;;;;;;802.90;438.95;;;;;;;;;;4975953;28;20034;-77
2022/02/06 08:42:02;;;;;;;801.13;436.73;;;;;;;;;;4957930;28;20031;-75
2022/02/06 08:44:29;;;;;;;801.25;439.42;;;;;;;;;;4947505;28;20027;-77
2022/02/06 08:46:56;;;;;;;798.15;432.02;;;;;;;;;;4984904;28;20032;-76
2022/02/06 08:49:23;;;;;;;798.63;431.42;;;;;;;;;;4988457;28;20024;-77
2022/02/06 08:51:49;;;;;;;800.75;437.55;;;;;;;;;;4966949;28;20089;-76
2022/02/06 08:54:15;;;;;;;804.33;444.17;;;;;;;;;;4972016;28;20035;-77
2022/02/06 08:56:41;;;;;;;803.47;447.13;;;;;;;;;;4968362;28;20035;-75
2022/02/06 08:59:07;;;;;;;802.60;439.00;;;;;;;;;;4968280;28;20031;-76
2022/02/06 09:01:34;;;;;;;801.42;440.15;;;;;;;;;;4975174;28;20027;-77
2022/02/06 09:04:00;;;;;;;803.85;441.33;;;;;;;;;;4997000;28;20473;-77
2022/02/06 09:06:26;;;;;;;804.05;446.27;;;;;;;;;;4965265;28;20130;-76
2022/02/06 09:08:56;;;;;;;804.22;445.60;;;;;;;;;;4960122;28;20043;-77
2022/02/06 09:11:26;;;;;;;802.83;440.13;;;;;;;;;;4945068;28;20082;-77
2022/02/06 09:13:52;;;;;;;803.17;437.33;;;;;;;;;;4988485;28;20038;-75
2022/02/06 09:16:18;;;;;;;801.20;437.13;;;;;;;;;;4965673;28;20099;-76
2022/02/06 09:18:44;;;;;;;800.25;438.38;;;;;;;;;;4943123;28;20032;-78
2022/02/06 09:21:10;;;;;;;799.63;434.08;;;;;;;;;;4957135;28;20054;-76
2022/02/06 09:23:36;;;;;;;804.17;443.42;;;;;;;;;;4947039;28;20494;-76
2022/02/06 09:26:02;;;;;;;804.45;447.88;;;;;;;;;;4970775;28;20027;-76
2022/02/06 09:28:28;;;;;;;801.72;443.80;;;;;;;;;;4944505;28;20027;-75
2022/02/06 09:30:55;;;;;;;801.42;438.75;;;;;;;;;;4962871;28;20038;-75
2022/02/06 09:35:47;;;;;;;800.15;438.10;;;;;;;;;;4952007;28;20036;-76
2022/02/06 09:38:13;;;;;;;801.75;438.80;;;;;;;;;;4950511;28;20035;-77
2022/02/06 09:40:41;;;;;;;798.25;433.10;;;;;;;;;;4945331;28;20034;-77
2022/02/06 09:43:07;;;;;;;800.70;433.92;;;;;;;;;;4951369;28;20031;-76
2022/02/06 09:45:37;;;;;;;803.53;435.40;;;;;;;;;;4970304;28;20035;-77
2022/02/06 09:48:04;;;;;;;803.65;441.77;;;;;;;;;;4966287;28;20472;-76
2022/02/06 09:50:30;;;;;;;804.25;442.35;;;;;;;;;;4969855;28;20033;-76
2022/02/06 09:52:56;;;;;;;805.25;451.85;;;;;;;;;;4951674;28;20095;-75
2022/02/06 09:55:22;;;;;;;800.10;440.88;;;;;;;;;;4959883;28;20114;-75
2022/02/06 09:57:53;;;;;;;798.80;434.75;;;;;;;;;;4976481;28;20043;-76
2022/02/06 10:00:19;;;;;;;;;;;;;;;;;;4999502;28;20035;-76
2022/02/06 10:02:47;;;;;;;796.75;419.80;;;;;;;;;;4960555;28;19996;-76
2022/02/06 10:05:15;;;;;;;799.92;431.63;;;;;;;;;;4975050;28;20120;-76
2022/02/06 10:07:44;;;;;;;796.22;426.90;;;;;;;;;;4950270;28;20046;-76
2022/02/06 10:10:12;;;;;;;802.97;439.10;;;;;;;;;;4948487;28;20498;-76
2022/02/06 10:12:39;;;;;;;818.13;442.52;;;;;;;;;;4972999;28;20027;-77
2022/02/06 10:15:07;;;;;;;798.92;438.25;;;;;;;;;;4964583;28;20115;-76
2022/02/06 10:17:35;;;;;;;802.05;443.63;;;;;;;;;;4974515;28;20025;-76
2022/02/06 10:20:02;;;;;;;804.72;448.60;;;;;;;;;;4945313;28;20043;-75
2022/02/06 10:22:37;;;;;;;803.70;450.73;;;;;;;;;;4961152;28;20055;-77
2022/02/06 10:25:06;;;;;;;803.80;441.45;;;;;;;;;;4976633;28;20135;-76
2022/02/06 10:27:48;;;;;;;804.40;446.88;;;;;;;;;;4961035;28;20031;-76
2022/02/06 10:30:38;;;;;;;797.78;431.85;;;;;;;;;;4951174;28;20023;-75
2022/02/06 10:33:08;;;;;;;802.47;429.60;;;;;;;;;;4965018;28;20122;-75
2022/02/06 10:35:38;;;;;;;800.28;434.40;;;;;;;;;;4960532;28;20034;-76
2022/02/06 10:38:23;;;;;;;803.17;442.00;;;;;;;;;;4978279;28;20562;-77
2022/02/06 10:41:06;;;;;;;798.83;428.42;;;;;;;;;;4959800;28;20097;-75
2022/02/06 10:43:33;;;;;;;801.28;434.40;;;;;;;;;;4948507;28;20513;-77
2022/02/06 10:46:10;;;;;;;801.08;441.48;;;;;;;;;;4960708;28;20028;-76
2022/02/06 10:48:43;;;;;;;800.55;436.60;;;;;;;;;;4943489;28;20027;-74
2022/02/06 10:51:09;;;;;;;800.83;434.17;;;;;;;;;;4963185;28;20434;-76
2022/02/06 10:53:35;;;;;;;805.40;447.20;;;;;;;;;;4954906;28;20131;-75
2022/02/06 10:56:03;;;;;;;808.72;454.08;;;;;;;;;;4982551;28;20119;-75
2022/02/06 10:58:33;;;;;;;805.10;450.77;;;;;;;;;;4956153;28;20089;-75
2022/02/06 11:01:06;;;;;;;805.75;446.20;;;;;;;;;;4964714;28;20486;-77
2022/02/06 11:03:35;;;;;;;806.28;449.33;;;;;;;;;;4987633;28;20038;-76
2022/02/06 11:06:09;;;;;;;804.90;446.93;;;;;;;;;;4971130;28;20047;-77
2022/02/06 11:08:36;;;;;;;798.13;432.33;;;;;;;;;;4950904;28;20110;-75
2022/02/06 11:11:02;;;;;;;800.22;435.00;;;;;;;;;;4990899;28;20024;-75
2022/02/06 11:13:33;;;;;;;808.08;452.98;;;;;;;;;;4943926;28;20035;-74
2022/02/06 11:16:04;;;;;;;802.60;447.70;;;;;;;;;;4956733;28;20502;-73
2022/02/06 11:18:39;;;;;;;803.90;440.90;;;;;;;;;;4987305;28;20493;-73
2022/02/06 11:21:09;;;;;;;800.47;427.33;;;;;;;;;;4966033;28;20054;-73
2022/02/06 11:23:38;;;;;;;799.05;409.83;;;;;;;;;;4976588;28;20084;-73
2022/02/06 11:26:23;;;;;;;794.55;402.88;;;;;;;;;;4962602;28;20023;-73
2022/02/06 11:28:51;;;;;;;790.72;388.05;;;;;;;;;;4959751;28;20459;-72
2022/02/06 11:31:17;;;;;;;794.13;386.80;;;;;;;;;;4946342;28;20031;-72
2022/02/06 11:33:46;;;;;;;796.60;395.35;;;;;;;;;;4955525;28;20035;-74
2022/02/06 11:36:19;;;;;;;791.15;382.80;;;;;;;;;;4948809;28;20035;-73
2022/02/06 11:44:25;;;;;;;790.25;375.10;;;;;;;;;;4956015;28;20077;-74
2022/02/06 11:47:10;;;;;;;791.92;384.33;;;;;;;;;;4940906;28;20039;-73
2022/02/06 11:49:37;;;;;;;792.10;380.00;;;;;;;;;;4981972;28;20485;-73
2022/02/06 11:52:03;;;;;;;792.97;386.20;;;;;;;;;;4965438;28;20054;-74
2022/02/06 11:54:36;;;;;;;791.08;381.15;;;;;;;;;;4957997;28;20455;-73
2022/02/06 11:57:23;;;;;;;792.10;386.13;;;;;;;;;;4966778;28;20117;-74
2022/02/06 12:00:15;;;;;;;797.13;392.58;;;;;;;;;;4962705;28;20027;-73
2022/02/06 12:02:48;;;;;;;792.08;385.13;;;;;;;;;;4970434;28;20514;-73
2022/02/06 12:05:14;;;;;;;791.80;387.33;;;;;;;;;;4950598;28;20523;-73
2022/02/06 12:07:52;;;;;;;794.30;394.55;;;;;;;;;;4950323;28;20067;-74
2022/02/06 12:10:34;;;;;;;797.38;394.20;;;;;;;;;;4959781;28;20023;-73
2022/02/06 12:13:25;;;;;;;789.05;380.40;;;;;;;;;;4960754;28;20038;-73
2022/02/06 12:15:52;;;;;;;792.78;382.27;;;;;;;;;;4965774;28;20120;-74
2022/02/06 12:18:25;;;;;;;793.05;386.60;;;;;;;;;;4955019;28;20019;-73
2022/02/06 12:20:54;;;;;;;794.47;394.73;;;;;;;;;;4964554;28;20032;-74
2022/02/06 12:23:38;;;;;;;794.90;392.38;;;;;;;;;;4974099;28;20355;-74
2022/02/06 12:26:26;;;;;;;795.40;393.63;;;;;;;;;;4958196;28;20298;-73
2022/02/06 12:28:53;;;;;;;796.78;397.15;;;;;;;;;;4962421;28;20047;-73
2022/02/06 12:31:27;;;;;;;798.47;400.95;;;;;;;;;;4949894;28;20037;-73
2022/02/06 12:39:33;;;;;;;789.63;384.88;;;;;;;;;;4966355;28;20556;-73
2022/02/06 12:42:00;;;;;;;794.28;392.45;;;;;;;;;;4970525;28;20040;-74
2022/02/06 12:44:27;;;;;;;794.85;397.98;;;;;;;;;;4949817;28;20027;-72
2022/02/06 12:46:56;;;;;;;791.10;395.10;;;;;;;;;;4945677;28;20085;-74
2022/02/06 12:49:28;;;;;;;797.00;402.48;;;;;;;;;;4972122;28;20023;-74
2022/02/06 12:51:55;;;;;;;794.05;396.85;;;;;;;;;;4959483;28;20042;-73
2022/02/06 12:54:22;;;;;;;793.03;390.80;;;;;;;;;;4980698;28;20385;-74
2022/02/06 12:56:48;;;;;;;792.65;389.38;;;;;;;;;;4961545;28;20039;-78
2022/02/06 12:59:20;;;;;;;794.80;393.02;;;;;;;;;;4963947;28;20039;-78
2022/02/06 13:01:48;;;;;;;799.38;400.45;;;;;;;;;;4963416;28;20062;-76
2022/02/06 13:04:15;;;;;;;794.17;394.70;;;;;;;;;;5019582;28;20021;-77
2022/02/06 13:06:43;;;;;;;797.03;400.75;;;;;;;;;;4984135;28;20058;-77
2022/02/06 13:09:17;;;;;;;799.13;405.17;;;;;;;;;;4965833;28;20029;-77
2022/02/06 13:12:12;;;;;;;800.97;413.00;;;;;;;;;;4954110;28;20050;-77
2022/02/06 13:20:05;;;;;;;799.50;408.35;;;;;;;;;;4981719;28;20070;-77
2022/02/06 13:22:52;;;;;;;797.42;401.60;;;;;;;;;;4960079;28;20023;-78
2022/02/06 13:31:00;;;;;;;797.33;404.15;;;;;;;;;;4961812;28;20045;-78
2022/02/06 13:33:47;;;;;;;796.40;401.75;;;;;;;;;;4968659;28;20029;-77
2022/02/06 13:38:41;;;;;;;799.92;416.50;;;;;;;;;;4954477;28;20043;-77
2022/02/06 13:41:16;;;;;;;800.10;416.70;;;;;;;;;;4983230;28;20428;-78
2022/02/06 13:43:42;;;;;;;796.80;410.80;;;;;;;;;;4985546;28;20506;-77
2022/02/06 13:46:15;;;;;;;796.80;413.60;;;;;;;;;;4961580;28;20042;-78
2022/02/06 13:48:41;;;;;;;801.97;417.98;;;;;;;;;;4966085;28;20405;-77
2022/02/06 13:51:09;;;;;;;818.42;422.83;;;;;;;;;;4959927;28;20039;-78
2022/02/06 13:53:36;;;;;;;798.72;415.27;;;;;;;;;;4955934;28;20490;-77
2022/02/06 13:56:10;;;;;;;800.30;418.58;;;;;;;;;;4968968;28;20467;-78
2022/02/06 13:58:36;;;;;;;799.22;417.25;;;;;;;;;;4982180;28;20463;-77
2022/02/06 14:01:04;;;;;;;800.40;419.48;;;;;;;;;;4983070;28;20029;-78
2022/02/06 14:03:42;;;;;;;800.63;419.70;;;;;;;;;;4959440;28;20050;-78
2022/02/06 14:06:09;;;;;;;797.88;412.38;;;;;;;;;;4970099;28;20446;-78
2022/02/06 14:08:37;;;;;;;796.63;413.40;;;;;;;;;;4963025;28;20480;-78
2022/02/06 14:11:12;;;;;;;803.70;428.05;;;;;;;;;;4968937;28;20114;-78
2022/02/06 14:13:38;;;;;;;800.00;415.50;;;;;;;;;;4978548;28;20032;-78
2022/02/06 14:16:06;;;;;;;799.42;421.98;;;;;;;;;;4965382;28;20404;-78
2022/02/06 14:18:33;;;;;;;802.22;422.52;;;;;;;;;;4961990;28;20027;-78
2022/02/06 14:21:00;;;;;;;827.67;424.98;;;;;;;;;;4977015;28;20031;-78
2022/02/06 14:23:26;;;;;;;801.10;426.55;;;;;;;;;;4975932;28;20028;-78
2022/02/06 14:25:52;;;;;;;801.63;427.38;;;;;;;;;;4967405;28;20027;-78
2022/02/06 14:28:20;;;;;;;801.85;431.25;;;;;;;;;;4969509;28;20029;-78
2022/02/06 14:30:46;;;;;;;802.38;432.33;;;;;;;;;;4959932;28;20035;-77
2022/02/06 14:33:18;;;;;;;803.30;432.42;;;;;;;;;;4954299;28;20046;-79
2022/02/06 14:35:56;;;;;;;804.53;435.73;;;;;;;;;;4990228;28;20038;-78
2022/02/06 14:38:33;;;;;;;802.83;429.13;;;;;;;;;;4972385;28;20035;-77
2022/02/06 14:41:20;;;;;;;804.10;432.88;;;;;;;;;;4966094;28;20036;-76
2022/02/06 14:43:52;;;;;;;800.63;422.00;;;;;;;;;;4980838;28;20494;-77
2022/02/06 14:46:18;;;;;;;804.65;437.00;;;;;;;;;;4976038;28;20031;-77
2022/02/06 14:48:45;;;;;;;805.13;437.75;;;;;;;;;;4955619;28;20025;-76
2022/02/06 14:51:13;;;;;;;812.20;447.42;;;;;;;;;;4948447;28;20046;-77
2022/02/06 14:53:40;;;;;;;804.30;438.15;;;;;;;;;;4968880;28;20403;-77
2022/02/06 14:56:08;;;;;;;800.67;428.77;;;;;;;;;;4958252;28;20307;-76
2022/02/06 14:58:34;;;;;;;803.22;437.67;;;;;;;;;;4958915;28;20027;-77
2022/02/06 15:01:00;;;;;;;805.85;443.65;;;;;;;;;;4952748;28;20031;-77
2022/02/06 15:03:26;;;;;;;805.40;436.63;;;;;;;;;;4978649;28;20479;-77
2022/02/06 15:05:52;;;;;;;803.20;435.88;;;;;;;;;;4958606;28;20058;-77
2022/02/06 15:08:19;;;;;;;805.45;438.52;;;;;;;;;;4958389;28;20162;-77
2022/02/06 15:10:46;;;;;;;805.00;440.13;;;;;;;;;;4957105;28;20031;-77
2022/02/06 15:13:13;;;;;;;803.10;433.85;;;;;;;;;;4948732;28;20031;-78
2022/02/06 15:15:44;;;;;;;805.85;443.55;;;;;;;;;;4955123;28;20027;-76
2022/02/06 15:18:22;;;;;;;804.72;432.40;;;;;;;;;;4951990;28;20500;-76
2022/02/06 15:20:49;;;;;;;800.28;426.95;;;;;;;;;;4950647;28;20035;-78
2022/02/06 15:23:15;;;;;;;800.38;433.65;;;;;;;;;;4951121;28;20043;-76
2022/02/06 15:25:41;;;;;;;802.95;435.38;;;;;;;;;;4966113;28;20021;-76
2022/02/06 15:28:07;;;;;;;803.30;432.65;;;;;;;;;;4951645;28;20080;-78
2022/02/06 15:30:33;;;;;;;804.10;434.52;;;;;;;;;;5006902;28;20504;-77
2022/02/06 15:32:59;;;;;;;800.45;430.52;;;;;;;;;;4960341;28;20042;-76
2022/02/06 15:35:25;;;;;;;802.45;428.33;;;;;;;;;;5030031;28;20024;-76
2022/02/06 15:37:51;;;;;;;800.63;423.45;;;;;;;;;;4972556;28;20033;-76
2022/02/06 15:40:18;;;;;;;800.30;427.70;;;;;;;;;;4963968;28;20368;-77
2022/02/06 15:42:45;;;;;;;798.58;420.00;;;;;;;;;;4978413;28;20367;-77
2022/02/06 15:45:12;;;;;;;799.72;427.05;;;;;;;;;;4989814;28;20574;-76
2022/02/06 15:47:38;;;;;;;801.35;425.95;;;;;;;;;;4983517;28;20859;-76
2022/02/06 15:50:06;;;;;;;801.50;423.40;;;;;;;;;;4956099;28;20035;-76
2022/02/06 15:52:35;;;;;;;797.22;418.13;;;;;;;;;;4951017;28;20134;-76
2022/02/06 15:55:02;;;;;;;798.63;421.02;;;;;;;;;;4955248;28;20050;-76
2022/02/06 15:57:27;;;;;;;799.92;425.13;;;;;;;;;;4961736;28;20019;-76
2022/02/06 15:59:53;;;;;;;796.20;418.65;;;;;;;;;;4967464;28;20045;-75
2022/02/06 16:02:19;;;;;;;794.53;410.95;;;;;;;;;;4985531;28;20039;-77
2022/02/06 16:04:45;;;;;;;788.72;398.75;;;;;;;;;;4969470;28;21351;-78
2022/02/06 16:07:11;;;;;;;780.95;378.67;;;;;;;;;;4962779;28;20108;-74
2022/02/06 16:09:39;;;;;;;782.10;366.52;;;;;;;;;;4963188;28;20024;-74
2022/02/06 16:12:07;;;;;;;778.97;358.08;;;;;;;;;;4970282;28;20054;-74
2022/02/06 16:14:38;;;;;;;778.17;358.70;;;;;;;;;;5000588;28;20029;-74
2022/02/06 16:17:04;;;;;;;774.20;344.40;;;;;;;;;;4944996;28;20043;-75
2022/02/06 16:19:31;;;;;;;771.10;338.58;;;;;;;;;;4974142;28;20031;-74
2022/02/06 16:21:59;;;;;;;773.30;337.63;;;;;;;;;;4959836;28;20034;-76
2022/02/06 16:24:25;;;;;;;771.90;339.40;;;;;;;;;;4976702;28;20541;-77
2022/02/06 16:26:51;;;;;;;770.63;329.27;;;;;;;;;;4975284;28;20029;-77
2022/02/06 16:29:17;;;;;;;772.33;331.23;;;;;;;;;;4938109;28;20497;-77
2022/02/06 16:31:44;;;;;;;772.50;332.02;;;;;;;;;;4967115;28;20031;-77
2022/02/06 16:34:10;;;;;;;770.92;324.85;;;;;;;;;;4950844;28;20040;-77